Latest Coastal Weather Observations for Devonport Airport

IDV60701

Issued at 5:02 am EST Monday 27 June 2016 (issued every 10 minutes, with the page automatically refreshed every 10 minutes)

About coastal observations | Map of coastal stations | Coastal observations for VIC | Marine services | Other Formats
Station Details ID: 091126 Name: DEVONPORT AIRPORT Lat: -41.17 Lon: 146.43 Height: 8.0 m
Data from the previous 72 hours. | See also: Recent months at Devonport Airport
Date/Time
EST
Temp
°C
Wind Pressure Rain since
9am
mm
Weather Cloud Vis
km
Sea
Height
m
Swell
Dir  Spd
kts
Gust
kts
hPa Trend Height
m
Period
s
Dir
27/05:00am 6.0 S 5 7 1011.1 - 0.6 - - 10 - - - -
27/04:30am 7.7 WSW 5 7 1011.1 - 0.6 - Partly cloudy 10 - - - -
27/04:00am 8.7 WSW 7 8 1011.2 - 0.6 - Cloudy 10 - - - -
27/03:30am 9.9 WNW 14 19 1011.2 - 0.6 - Partly cloudy 10 - - - -
27/03:00am 10.0 WNW 15 20 1011.5 - 0.6 Rain Cloudy 10 - - - -
27/02:30am 9.9 W 13 17 1011.6 - 0.6 - Partly cloudy 10 - - - -
27/02:29am 9.9 W 13 17 1011.6 - 0.6 - Partly cloudy 10 - - - -
27/02:17am 10.2 W 16 21 1011.5 - 0.4 - Partly cloudy 10 - - - -
27/02:13am 10.2 WNW 17 23 1011.6 - 0.4 - Partly cloudy 9 - - - -
27/02:00am 11.2 NW 21 27 1011.3 - 0.2 - Partly cloudy 10 - - - -
27/01:38am 11.0 NW 21 27 1011.2 - 0.2 - Partly cloudy 10 - - - -
27/01:30am 10.9 NW 20 27 1011.3 - 0.2 - Partly cloudy 7 - - - -
27/01:26am 10.9 NW 21 28 1011.3 - 0.2 - Partly cloudy 6 - - - -
27/01:00am 12.1 NNW 21 28 1011.2 - 0.0 - Partly cloudy 10 - - - -
27/12:30am 11.9 NNW 20 25 1011.5 - 0.0 - Partly cloudy 10 - - - -
27/12:00am 11.8 NW 18 23 1011.8 - 0.0 - Cloudy 10 - - - -
 
Date/Time
EST
Temp
°C
Wind Pressure Rain since
9am
mm
Weather Cloud Vis
km
Sea
Height
m
Swell
Dir  Spd
kts
Gust
kts
hPa Trend Height
m
Period
s
Dir
26/11:30pm 11.7 NW 17 23 1012.1 - 0.0 - Partly cloudy 10 - - - -
26/11:00pm 11.8 NW 16 22 1012.2 - 0.0 - Partly cloudy 10 - - - -
26/10:30pm 11.7 NW 16 22 1012.4 - 0.0 - Partly cloudy 10 - - - -
26/10:00pm 11.5 NW 15 19 1012.7 - 0.0 - Partly cloudy 10 - - - -
26/09:30pm 11.3 NW 15 19 1012.9 - 0.0 - Partly cloudy 10 - - - -
26/09:00pm 11.1 NW 11 14 1013.1 - 0.0 - Cloudy 10 - - - -
26/08:30pm 10.2 W 8 10 1013.5 - 0.0 - Partly cloudy 10 - - - -
26/08:00pm 10.5 W 9 14 1013.5 - 0.0 - Partly cloudy 10 - - - -
26/07:30pm 10.4 W 10 16 1013.6 - 0.0 - Partly cloudy 10 - - - -
26/07:00pm 11.2 WNW 15 18 1013.5 - 0.0 - Cloudy 10 - - - -
26/06:30pm 11.3 NW 17 22 1013.5 - 0.0 - Cloudy 10 - - - -
26/06:00pm 11.2 NW 17 21 1013.5 - 0.0 - Mostly cloudy 10 - - - -
26/05:30pm 11.2 NW 17 21 1013.6 - 0.0 - Cloudy 10 - - - -
26/05:00pm 11.4 WNW 19 23 1013.4 - 0.0 - Cloudy 10 - - - -
26/04:30pm 11.4 NW 18 24 1013.5 - 0.0 - Cloudy 10 - - - -
26/04:00pm 11.6 NW 17 21 1013.7 - 0.0 - Partly cloudy 10 - - - -
26/03:30pm 11.4 NW 18 23 1013.7 - 0.0 - Partly cloudy 10 - - - -
26/03:00pm 11.2 NW 19 23 1013.9 - 0.0 - Cloudy 10 - - - -
26/02:30pm 11.8 NW 15 21 1014.0 - 0.0 - Partly cloudy 10 - - - -
26/02:00pm 12.0 WNW 17 21 1014.3 - 0.0 - Partly cloudy 10 - - - -
26/01:30pm 12.5 WNW 17 21 1014.6 - 0.0 - Partly cloudy 10 - - - -
26/01:00pm 12.5 WNW 17 22 1014.9 - 0.0 - Partly cloudy 10 - - - -
26/12:30pm 11.7 WNW 10 18 1015.4 - 0.0 - Partly cloudy 10 - - - -
26/12:00pm 10.8 WNW 7 8 1016.1 - 0.0 - Partly cloudy 10 - - - -
26/11:30am 10.7 NW 4 6 1016.7 - 0.0 - Partly cloudy 10 - - - -
26/11:00am 10.5 W 4 5 1017.2 - 0.0 - - 10 - - - -
26/10:30am 8.7 SSW 3 4 1017.5 - 0.0 - Partly cloudy 10 - - - -
26/10:00am 7.5 S 5 6 1017.7 - 0.0 - - 10 - - - -
26/09:30am 6.2 S 5 6 1017.7 - 0.0 - - 10 - - - -
26/09:00am 4.3 S 7 8 1017.5 - 0.2 - Partly cloudy 10 - - - -
26/08:30am 3.3 SSW 6 7 1017.7 - 0.2 - Partly cloudy 10 - - - -
26/08:00am 2.6 S 7 8 1017.6 - 0.2 - Partly cloudy 10 - - - -
26/07:30am 2.5 S 7 9 1017.4 - 0.2 - - 10 - - - -
26/07:00am 2.7 S 7 8 1017.5 - 0.2 - - 10 - - - -
26/06:30am 2.1 S 6 7 1017.6 - 0.2 - - 10 - - - -
26/06:00am 2.2 S 6 7 1017.5 - 0.2 - - 10 - - - -
26/05:30am 2.3 S 6 7 1017.3 - 0.2 - - 10 - - - -
26/05:00am 2.4 S 7 7 1017.2 - 0.2 - - 10 - - - -
26/04:30am 2.8 S 6 7 1017.2 - 0.2 - - 10 - - - -
26/04:00am 2.7 SSW 6 7 1017.1 - 0.0 - - 10 - - - -
26/03:30am 3.4 S 7 8 1017.3 - 0.0 - - 10 - - - -
26/03:00am 3.9 SSW 7 8 1017.3 - 0.0 - - 10 - - - -
26/02:30am 3.7 S 7 7 1017.5 - 0.0 - - 10 - - - -
26/02:00am 3.7 S 5 6 1017.6 - 0.0 - - 10 - - - -
26/01:30am 5.3 SW 5 7 1017.6 - 0.0 - - 10 - - - -
26/01:00am 5.9 WSW 8 9 1017.8 - 0.0 - - 10 - - - -
26/12:30am 4.9 SW 3 5 1018.0 - 0.0 - - 10 - - - -
26/12:00am 5.5 W 7 7 1018.1 - 0.0 - - 10 - - - -
 
Date/Time
EST
Temp
°C
Wind Pressure Rain since
9am
mm
Weather Cloud Vis
km
Sea
Height
m
Swell
Dir  Spd
kts
Gust
kts
hPa Trend Height
m
Period
s
Dir
25/11:30pm 4.9 W 3 5 1018.1 - 0.0 - - 10 - - - -
25/11:00pm 5.8 SW 2 4 1018.2 - 0.0 - - 10 - - - -
25/10:30pm 7.2 WSW 5 6 1018.3 - 0.0 - - 10 - - - -
25/10:00pm 6.2 W 7 8 1018.5 - 0.0 - - 10 - - - -
25/09:30pm 6.7 W 6 7 1018.5 - 0.0 - - 10 - - - -
25/09:00pm 7.8 WSW 6 7 1018.6 - 0.0 - - 10 - - - -
25/08:30pm 5.6 W 6 7 1018.6 - 0.0 - - 10 - - - -
25/08:00pm 7.8 WSW 7 8 1018.7 - 0.0 - - 10 - - - -
25/07:30pm 6.5 W 6 7 1018.6 - 0.0 - - 10 - - - -
25/07:00pm 7.6 WSW 6 7 1018.5 - 0.0 - - 10 - - - -
25/06:30pm 8.4 WSW 7 8 1018.5 - 0.0 - - 10 - - - -
25/06:00pm 8.9 W 7 10 1018.7 - 0.0 - - 10 - - - -
25/05:30pm 10.3 WNW 13 16 1018.4 - 0.0 - - 10 - - - -
25/05:00pm 10.4 WNW 14 17 1018.3 - 0.0 - - 10 - - - -
25/04:30pm 10.7 WNW 15 18 1018.0 - 0.0 - Partly cloudy 10 - - - -
25/04:00pm 11.3 WNW 15 19 1018.1 - 0.0 - Partly cloudy 10 - - - -
25/03:30pm 11.3 WNW 12 14 1018.1 - 0.0 - Partly cloudy 10 - - - -
25/03:00pm 11.5 WNW 8 11 1018.1 - 0.0 - Cloudy 10 - - - -
25/02:30pm 10.7 WNW 10 14 1018.2 - 0.0 - - 10 - - - -
25/02:00pm 11.3 NW 11 14 1018.4 - 0.0 - - 10 - - - -
25/01:30pm 10.6 NW 11 13 1018.6 - 0.0 - - 10 - - - -
25/01:00pm 10.5 NW 10 13 1018.7 - 0.0 - - 10 - - - -
25/12:30pm 10.2 WNW 7 10 1018.8 - 0.0 - - 10 - - - -
25/12:00pm 9.7 NW 5 8 1019.1 - 0.0 - - 10 - - - -
25/11:30am 8.9 NW 6 8 1019.5 - 0.0 - - 10 - - - -
25/11:00am 8.9 W 6 9 1019.6 - 0.0 - - 10 - - - -
25/10:30am 8.2 W 7 9 1019.5 - 0.0 - - 10 - - - -
25/10:00am 7.0 W 7 8 1019.1 - 0.0 - - 10 - - - -
25/09:30am 6.1 SW 6 8 1018.8 - 0.0 - - 10 - - - -
25/09:00am 5.2 SW 6 7 1018.5 - 0.0 - - 10 - - - -
25/08:30am 2.9 WSW 9 10 1018.5 - 0.0 - - 10 - - - -
25/08:00am 1.0 WSW 8 9 1018.3 - 0.0 - - 10 - - - -
25/07:30am 1.8 WSW 7 7 1017.9 - 0.0 - - 10 - - - -
25/07:00am 1.8 WSW 6 7 1017.6 - 0.0 - - 10 - - - -
25/06:30am 2.0 SW 5 5 1017.5 - 0.0 - - 10 - - - -
25/06:00am 3.7 SSW 6 8 1016.9 - 0.0 - - 10 - - - -
25/05:30am 3.4 SW 8 9 1016.7 - 0.0 - - 10 - - - -
25/05:00am 3.1 SW 7 9 1016.2 - 0.0 - - 10 - - - -
25/04:30am 5.2 SW 11 14 1015.6 - 0.0 - - 10 - - - -
25/04:00am 5.2 SW 9 13 1015.5 - 0.0 - - 10 - - - -
25/03:30am 2.7 SW 9 11 1015.2 - 0.0 - - 10 - - - -
25/03:00am 4.0 SW 9 13 1014.7 - 0.0 - - 10 - - - -
25/02:30am 3.4 W 10 11 1014.7 - 0.0 - - 10 - - - -
25/02:00am 4.4 WSW 7 11 1014.4 - 0.0 - - 10 - - - -
25/01:30am 3.6 SSE 1 6 1013.9 - 0.0 - - 10 - - - -
25/01:00am 4.1 SW 6 8 1013.6 - 0.0 - - 10 - - - -
25/12:30am 4.3 WSW 10 13 1013.1 - 0.0 - - 10 - - - -
25/12:00am 2.9 WSW 10 11 1012.9 - 0.0 - - 10 - - - -
 
Date/Time
EST
Temp
°C
Wind Pressure Rain since
9am
mm
Weather Cloud Vis
km
Sea
Height
m
Swell
Dir  Spd
kts
Gust
kts
hPa Trend Height
m
Period
s
Dir
24/11:30pm 2.9 WSW 8 9 1012.6 - 0.0 - - 10 - - - -
24/11:00pm 4.1 SW 5 7 1012.2 - 0.0 - - 10 - - - -
24/10:30pm 4.4 SW 5 7 1011.8 - 0.0 - - 10 - - - -
24/10:00pm 4.0 W 8 10 1011.3 - 0.0 - - 10 - - - -
24/09:30pm 3.9 W 14 16 1010.5 - 0.0 - - 10 - - - -
24/09:00pm 4.2 WSW 7 10 1009.9 - 0.0 - - 10 - - - -
24/08:30pm 4.3 WSW 8 9 1009.2 - 0.0 - - 10 - - - -
24/08:00pm 6.0 SW 9 12 1008.6 - 0.0 - - 10 - - - -
24/07:30pm 5.7 SW 8 11 1008.0 - 0.0 - - 10 - - - -
24/07:00pm 5.8 SW 6 8 1007.5 - 0.0 - - 10 - - - -
24/06:30pm 5.4 WSW 7 10 1006.5 - 0.0 - - 10 - - - -
24/06:00pm 6.5 WSW 9 11 1005.8 - 0.0 - Cloudy 10 - - - -
24/05:30pm 6.9 WSW 9 12 1004.9 - 0.0 - Partly cloudy 10 - - - -
24/05:00pm 6.9 WSW 13 16 1004.4 - 0.0 - Partly cloudy 10 - - - -
24/04:30pm 7.5 WSW 13 16 1003.6 - 0.0 - Partly cloudy 10 - - - -
24/04:00pm 8.4 WSW 14 19 1003.0 - 0.0 - Partly cloudy 10 - - - -
24/03:30pm 9.0 WSW 13 18 1002.1 - 0.0 - - 10 - - - -
24/03:00pm 9.8 WSW 13 17 1001.3 - 0.0 - Partly cloudy 10 - - - -
24/02:30pm 9.3 SW 9 13 1000.8 - 0.0 - Partly cloudy 10 - - - -
24/02:00pm 8.7 W 13 16 1000.7 - 0.0 - - 10 - - - -
24/01:30pm 9.6 WSW 8 11 1000.2 - 0.0 - - 10 - - - -
24/01:00pm 9.2 WSW 8 10 1000.0 - 0.0 - Partly cloudy 10 - - - -
24/12:30pm 8.8 WNW 5 8 1000.0 - 0.0 - - 10 - - - -
24/12:00pm 8.1 WSW 9 11 999.9 - 0.0 - - 10 - - - -
24/11:30am 7.0 WSW 5 7 1000.0 - 0.0 - Partly cloudy 10 - - - -
24/11:00am 5.7 SW 5 6 999.9 - 0.0 - - 10 - - - -
24/10:30am 5.4 SSW 4 5 999.3 - 0.0 - - 10 - - - -
24/10:00am 4.9 CALM 0 4 999.1 - 0.0 - - 10 - - - -
24/09:30am 4.5 S 3 4 998.8 - 0.0 - - 10 - - - -
24/09:00am 4.0 SSW 3 5 998.3 - 26.6 - Cloudy 10 - - - -
24/08:30am 4.2 S 5 6 997.7 - 26.6 - Partly cloudy 10 - - - -
24/08:00am 4.0 S 4 6 997.6 - 26.6 - Partly cloudy 10 - - - -
24/07:30am 4.0 SSW 6 8 997.4 - 26.6 - Partly cloudy 10 - - - -
24/07:00am 3.8 SSE 7 8 996.7 - 26.6 - Partly cloudy 10 - - - -
24/06:30am 3.6 SSE 8 10 996.7 - 26.6 - - 10 - - - -
24/06:00am 3.5 S 7 9 996.4 - 26.6 - Cloudy 10 - - - -
24/05:30am 3.3 S 8 9 996.0 - 26.6 - - 10 - - - -

Other Formats:

Comma delimited format used in spreadsheet applications
http://www.bom.gov.au/fwo/IDV60701/IDV60701.95960.axf

JavaScript Object Notation format (JSON) in row-major order
http://www.bom.gov.au/fwo/IDV60701/IDV60701.95960.json